Time;durP1;ratioP1;P1;durP2;ratioP2;P2;SDS_P1;SDS_P2;PMS_P1;PMS_P2;Temp;Humidity;BMP_temperature;BMP_pressure;BME280_temperature;BME280_humidity;BME280_pressure;Samples;Min_cycle;Max_cycle;Signal;HPM_P1;HPM_P2
2022/09/24 00:01:08;;;;;;;6.17;5.27;;;;;;;12.60;56.32;94957.34;5134320;28;20228;-78
2022/09/24 00:03:34;;;;;;;8.27;5.80;;;;;;;12.57;56.45;94955.09;5135524;28;20236;-83
2022/09/24 00:06:02;;;;;;;7.07;4.87;;;;;;;12.64;56.50;94977.44;5136476;28;20203;-83
2022/09/24 00:08:29;;;;;;;8.30;5.57;;;;;;;12.67;56.70;94974.59;5135106;28;20223;-84
2022/09/24 00:10:57;;;;;;;7.60;5.70;;;;;;;12.65;56.68;94973.94;5135315;28;20199;-83
2022/09/24 00:13:25;;;;;;;5.50;4.93;;;;;;;12.58;56.54;94964.38;5123714;28;20200;-87
2022/09/24 00:15:52;;;;;;;8.93;5.83;;;;;;;12.55;56.68;94965.47;5116704;28;20709;-85
2022/09/24 00:18:20;;;;;;;6.40;4.97;;;;;;;12.59;56.70;94976.25;5117433;28;20189;-93
2022/09/24 00:20:48;;;;;;;6.33;5.47;;;;;;;12.55;56.88;94973.97;5121138;28;20220;-92
2022/09/24 00:23:15;;;;;;;7.20;5.40;;;;;;;12.54;56.74;94971.56;5120331;28;20188;-88
2022/09/24 00:28:34;;;;;;;6.80;5.13;;;;;;;12.47;56.94;94973.88;5050196;28;20201;-89
2022/09/24 00:31:05;;;;;;;7.10;5.23;;;;;;;12.44;57.05;94963.91;5046999;28;20203;-92
2022/09/24 00:33:33;;;;;;;10.17;4.93;;;;;;;12.42;57.32;94970.94;5048321;28;20196;-89
2022/09/24 00:36:03;;;;;;;6.30;5.30;;;;;;;12.30;57.10;94959.22;5047534;28;20188;-94
2022/09/24 00:38:30;;;;;;;6.97;5.23;;;;;;;12.24;57.24;94947.00;5043311;28;20262;-77
2022/09/24 00:40:58;;;;;;;9.27;5.37;;;;;;;12.37;57.27;94969.75;5053482;28;20207;-80
2022/09/24 00:43:26;;;;;;;9.53;5.33;;;;;;;12.34;57.47;94967.47;5051055;28;20183;-85
2022/09/24 00:45:59;;;;;;;7.17;5.00;;;;;;;12.30;57.47;94969.50;5063894;28;20207;-81
2022/09/24 00:48:25;;;;;;;7.20;4.77;;;;;;;12.22;57.35;94951.47;5062281;28;20183;-92
2022/09/24 00:50:52;;;;;;;7.70;5.37;;;;;;;12.24;57.53;94958.06;5059992;28;20179;-86
2022/09/24 00:53:22;;;;;;;9.07;5.10;;;;;;;12.26;57.69;94963.88;5060557;28;20225;-92
2022/09/24 00:55:54;;;;;;;6.53;4.53;;;;;;;11.94;57.56;94918.09;5061421;28;20201;-89
2022/09/24 00:58:22;;;;;;;6.60;4.83;;;;;;;12.19;57.60;94962.81;5064553;28;20191;-73
2022/09/24 01:00:52;;;;;;;6.50;4.83;;;;;;;12.18;57.79;94962.94;5053658;28;20245;-79
2022/09/24 01:03:24;;;;;;;5.50;4.83;;;;;;;12.16;57.75;94960.50;5042978;28;20211;-83
2022/09/24 01:05:51;;;;;;;4.87;4.40;;;;;;;12.13;57.82;94954.84;5101494;28;20345;-77
2022/09/24 01:08:20;;;;;;;4.67;4.00;;;;;;;12.12;57.97;94950.69;5130157;28;20576;-80
2022/09/24 01:11:04;;;;;;;5.53;4.30;;;;;;;12.11;58.10;94959.31;5122997;28;20187;-74
2022/09/24 01:13:43;;;;;;;5.33;4.70;;;;;;;11.93;58.12;94928.50;5111527;28;20659;-76
2022/09/24 01:16:19;;;;;;;7.53;4.50;;;;;;;12.04;57.80;94954.75;5110756;28;20200;-80
2022/09/24 01:18:56;;;;;;;5.80;4.23;;;;;;;12.04;58.21;94953.94;5119190;28;20203;-81
2022/09/24 01:21:39;;;;;;;7.17;5.30;;;;;;;12.02;58.07;94956.66;5120790;28;20234;-90
2022/09/24 01:24:30;;;;;;;5.60;4.93;;;;;;;11.98;58.34;94949.38;5126204;28;20181;-76
2022/09/24 01:27:13;;;;;;;4.90;4.30;;;;;;;11.99;58.34;94956.13;5115936;28;20189;-74
2022/09/24 01:29:51;;;;;;;5.63;4.40;;;;;;;11.96;58.37;94949.53;5114945;28;20180;-80
2022/09/24 01:32:25;;;;;;;5.90;4.60;;;;;;;11.95;58.35;94949.66;5114506;28;20250;-74
2022/09/24 01:35:00;;;;;;;5.57;4.40;;;;;;;11.92;58.26;94944.81;5115333;28;20200;-78
2022/09/24 01:37:32;;;;;;;5.77;4.47;;;;;;;11.87;58.50;94942.66;5115238;28;20176;-74
2022/09/24 01:40:01;;;;;;;5.23;4.70;;;;;;;11.87;58.60;94947.78;5114951;28;20242;-75
2022/09/24 01:42:31;;;;;;;5.30;4.40;;;;;;;11.88;58.30;94946.84;5115657;28;20193;-76
2022/09/24 01:45:01;;;;;;;6.40;4.70;;;;;;;11.85;58.47;94944.56;5114913;28;20276;-79
2022/09/24 01:47:34;;;;;;;7.53;4.90;;;;;;;11.84;58.40;94958.31;5113771;28;20197;-77
2022/09/24 01:50:01;;;;;;;8.33;5.00;;;;;;;11.75;58.50;94947.13;5114563;28;20257;-84
2022/09/24 01:52:34;;;;;;;7.60;4.40;;;;;;;11.77;58.64;94950.34;5114561;28;20212;-77
2022/09/24 01:55:06;;;;;;;6.83;4.97;;;;;;;11.73;58.66;94941.31;5116529;28;20200;-78
2022/09/24 01:57:38;;;;;;;7.37;5.27;;;;;;;11.77;58.63;94962.34;5116125;28;20185;-73
2022/09/24 02:00:11;;;;;;;7.53;4.97;;;;;;;11.76;58.70;94958.97;5117233;28;20190;-77
2022/09/24 02:02:44;;;;;;;5.17;4.67;;;;;;;11.58;58.71;94939.34;5116259;28;20192;-74
2022/09/24 02:05:18;;;;;;;7.70;4.87;;;;;;;11.75;58.62;94969.38;5117541;28;20260;-73
2022/09/24 02:07:50;;;;;;;6.97;4.83;;;;;;;11.69;58.69;94965.59;5120470;28;20235;-74
2022/09/24 02:10:20;;;;;;;5.87;4.80;;;;;;;11.47;58.91;94935.97;5120104;28;20185;-76
2022/09/24 02:12:53;;;;;;;9.57;4.90;;;;;;;11.71;58.85;94976.53;5119501;28;20220;-74
2022/09/24 02:15:27;;;;;;;5.83;4.90;;;;;;;11.69;58.69;94980.16;5120414;28;20188;-77
2022/09/24 02:17:58;;;;;;;6.83;5.20;;;;;;;11.66;58.95;94978.69;5121357;28;20185;-86
2022/09/24 02:20:27;;;;;;;8.27;4.87;;;;;;;11.65;58.69;94982.19;5096461;28;20672;-77
2022/09/24 02:22:57;;;;;;;5.43;4.70;;;;;;;11.64;58.91;94988.25;5098045;28;20193;-73
2022/09/24 02:25:28;;;;;;;7.70;4.77;;;;;;;11.56;59.03;94970.19;5095904;28;20220;-80
2022/09/24 02:27:56;;;;;;;5.43;4.83;;;;;;;11.63;58.91;94984.09;5094882;28;20186;-82
2022/09/24 02:30:24;;;;;;;7.13;5.27;;;;;;;11.57;59.09;94987.19;5094989;28;20190;-75
2022/09/24 02:32:53;;;;;;;7.17;5.30;;;;;;;11.58;59.12;94993.94;5094898;28;20190;-75
2022/09/24 02:35:20;;;;;;;6.63;5.20;;;;;;;11.57;59.14;94994.88;5099870;28;20181;-80
2022/09/24 02:37:46;;;;;;;6.13;5.50;;;;;;;11.55;59.16;95000.13;5114473;28;20668;-85
2022/09/24 02:40:14;;;;;;;6.70;5.00;;;;;;;11.55;59.25;94991.63;5115849;28;20197;-90
2022/09/24 02:42:42;;;;;;;6.03;5.23;;;;;;;11.54;59.25;95005.41;5117534;28;20193;-81
2022/09/24 02:45:10;;;;;;;8.10;5.40;;;;;;;11.52;59.18;95004.72;5123884;28;20187;-76
2022/09/24 02:47:38;;;;;;;6.37;5.23;;;;;;;11.49;59.25;95000.69;5123358;28;20181;-89
2022/09/24 02:50:06;;;;;;;5.83;4.77;;;;;;;11.48;59.33;95003.34;5116722;28;20196;-80
2022/09/24 02:52:33;;;;;;;6.10;4.93;;;;;;;11.47;59.25;95006.88;5097522;28;20189;-89
2022/09/24 02:55:00;;;;;;;8.53;5.10;;;;;;;11.46;59.35;95008.63;5116001;28;20182;-92
2022/09/24 02:57:27;;;;;;;6.43;5.33;;;;;;;11.44;59.40;95010.53;5116486;28;20192;-79
2022/09/24 02:59:53;;;;;;;6.33;5.03;;;;;;;11.44;59.40;95015.66;5120884;28;20193;-84
2022/09/24 03:02:20;;;;;;;9.93;5.57;;;;;;;11.41;59.41;95015.91;5119603;28;20227;-88
2022/09/24 03:04:48;;;;;;;6.23;5.33;;;;;;;11.40;59.59;95014.31;5121849;28;20185;-93
2022/09/24 03:07:15;;;;;;;7.33;5.17;;;;;;;11.39;59.54;95010.09;5122970;28;20304;-86
2022/09/24 03:09:42;;;;;;;6.03;5.33;;;;;;;11.39;59.56;95004.19;5115439;28;20655;-86
2022/09/24 03:12:09;;;;;;;5.60;4.90;;;;;;;11.27;59.41;95001.78;5114193;28;20204;-87
2022/09/24 03:14:36;;;;;;;7.43;4.90;;;;;;;11.36;59.60;95012.94;5115921;28;20177;-82
2022/09/24 03:17:03;;;;;;;6.43;5.40;;;;;;;11.34;59.58;95012.25;5115198;28;20185;-89
2022/09/24 03:19:43;;;;;;;5.77;5.17;;;;;;;11.26;59.71;94999.31;5115826;28;20194;-83
2022/09/24 03:22:11;;;;;;;10.47;5.33;;;;;;;11.33;59.58;95010.66;5115682;28;20224;-83
2022/09/24 03:24:37;;;;;;;6.80;5.00;;;;;;;11.20;59.74;94998.13;5115274;28;20189;-77
2022/09/24 03:27:04;;;;;;;6.90;5.03;;;;;;;11.30;59.72;95016.84;5130057;28;20250;-76
2022/09/24 03:32:15;;;;;;;6.90;5.10;;;;;;;11.27;59.86;95018.88;5117252;28;20210;-80
2022/09/24 03:34:42;;;;;;;6.17;5.43;;;;;;;11.16;59.65;95012.13;5115800;28;20203;-92
2022/09/24 03:37:09;;;;;;;7.47;5.83;;;;;;;11.23;59.75;95020.91;5117122;28;20258;-90
2022/09/24 03:39:37;;;;;;;6.07;4.60;;;;;;;11.23;59.90;95035.44;5119289;28;20185;-86
2022/09/24 03:42:04;;;;;;;8.40;5.63;;;;;;;11.21;60.17;95029.63;5125466;28;20208;-77
2022/09/24 03:44:31;;;;;;;7.33;5.30;;;;;;;11.19;59.77;95034.09;5133025;28;20182;-76
2022/09/24 03:46:58;;;;;;;6.13;4.60;;;;;;;11.15;59.90;95020.75;5120798;28;20193;-84
2022/09/24 03:49:25;;;;;;;6.80;4.60;;;;;;;11.17;59.94;95036.78;5118483;28;20562;-76
2022/09/24 03:51:52;;;;;;;5.33;4.67;;;;;;;11.16;59.97;95031.78;5119013;28;20251;-82
2022/09/24 03:54:18;;;;;;;6.60;4.77;;;;;;;11.14;59.96;95033.66;5118043;28;20192;-78
2022/09/24 03:56:47;;;;;;;7.50;5.30;;;;;;;11.13;60.02;95034.59;5121447;28;20200;-80
2022/09/24 03:59:13;;;;;;;6.07;4.53;;;;;;;11.11;60.10;95039.88;5122931;28;20189;-86
2022/09/24 04:01:40;;;;;;;6.33;4.83;;;;;;;11.07;60.07;95030.03;5120052;28;20212;-73
2022/09/24 04:04:07;;;;;;;6.63;4.60;;;;;;;11.09;60.11;95039.19;5120295;28;20196;-78
2022/09/24 04:06:34;;;;;;;7.70;5.37;;;;;;;11.08;60.02;95041.88;5120232;28;20590;-72
2022/09/24 04:09:00;;;;;;;6.07;4.70;;;;;;;10.93;60.23;95021.00;5114934;28;20189;-75
2022/09/24 04:11:27;;;;;;;7.27;5.00;;;;;;;11.04;60.09;95031.09;5113480;28;20187;-88
2022/09/24 04:13:57;;;;;;;4.80;4.30;;;;;;;11.03;60.25;95032.84;5113912;28;20212;-83
2022/09/24 04:16:24;;;;;;;5.00;4.47;;;;;;;11.00;60.25;95029.72;5112865;28;20390;-88
2022/09/24 04:18:51;;;;;;;7.03;4.97;;;;;;;11.01;60.26;95033.91;5112868;28;20177;-85
2022/09/24 04:21:18;;;;;;;6.30;5.10;;;;;;;11.03;60.32;95042.28;5111596;28;20227;-76
2022/09/24 04:23:44;;;;;;;6.43;5.00;;;;;;;11.01;60.35;95037.31;5111485;28;20192;-80
2022/09/24 04:26:11;;;;;;;6.13;4.73;;;;;;;11.00;60.43;95045.91;5118163;28;20651;-73
2022/09/24 04:28:38;;;;;;;7.37;4.63;;;;;;;11.03;60.33;95049.94;5118823;28;20193;-77
2022/09/24 04:31:06;;;;;;;4.67;4.10;;;;;;;11.01;60.23;95051.81;5120426;28;20197;-75
2022/09/24 04:33:33;;;;;;;6.93;4.77;;;;;;;11.07;60.42;95065.88;5118499;28;20277;-77
2022/09/24 04:36:00;;;;;;;5.23;4.33;;;;;;;11.09;60.43;95061.41;5097965;28;20189;-74
2022/09/24 04:38:27;;;;;;;7.37;4.57;;;;;;;11.10;60.18;95061.28;5117867;28;20270;-89
2022/09/24 04:40:54;;;;;;;5.53;4.40;;;;;;;10.87;60.19;95016.38;5114338;28;20197;-76
2022/09/24 04:43:20;;;;;;;5.97;4.73;;;;;;;11.02;60.24;95036.34;5111395;28;20647;-73
2022/09/24 04:45:47;;;;;;;6.30;3.93;;;;;;;11.20;60.16;95058.75;5111341;28;20189;-86
2022/09/24 04:48:16;;;;;;;6.53;4.93;;;;;;;11.25;60.35;95056.59;5113398;28;20189;-76
2022/09/24 04:50:43;;;;;;;5.43;4.40;;;;;;;11.23;59.98;95048.25;5114234;28;20189;-86
2022/09/24 04:53:10;;;;;;;6.23;5.00;;;;;;;11.33;60.10;95053.38;5112640;28;20201;-79
2022/09/24 04:55:38;;;;;;;5.60;4.63;;;;;;;11.39;59.98;95060.50;5112970;28;20192;-73
2022/09/24 04:58:05;;;;;;;6.57;5.17;;;;;;;11.32;59.78;95031.28;5112537;28;20181;-82
2022/09/24 05:00:32;;;;;;;5.87;5.00;;;;;;;11.56;59.85;95055.53;5120941;28;20181;-76
2022/09/24 05:03:02;;;;;;;9.77;4.80;;;;;;;11.73;59.40;95035.31;5124942;28;20243;-74
2022/09/24 05:05:31;;;;;;;7.40;5.20;;;;;;;12.21;59.39;95054.97;5127102;28;20192;-75
2022/09/24 05:07:58;;;;;;;6.90;4.40;;;;;;;12.55;59.66;95038.09;5125215;28;20228;-73
2022/09/24 05:10:26;;;;;;;6.60;4.43;;;;;;;12.81;59.69;95006.66;5113028;28;20246;-74
2022/09/24 05:12:52;;;;;;;6.60;3.97;;;;;;;13.77;59.53;95059.19;5113833;28;20666;-74
2022/09/24 05:15:20;;;;;;;4.90;4.07;;;;;;;14.28;58.87;95018.22;5115031;28;20181;-73
2022/09/24 05:17:47;;;;;;;6.20;4.13;;;;;;;15.28;58.16;95069.03;5112834;28;20177;-73
2022/09/24 05:20:15;;;;;;;12.80;4.70;;;;;;;16.07;57.10;95054.00;5110808;28;20196;-79
2022/09/24 05:22:44;;;;;;;6.97;4.33;;;;;;;16.92;55.94;95061.25;5110414;28;20663;-74
2022/09/24 05:25:12;;;;;;;5.93;4.30;;;;;;;17.64;54.74;95046.31;5109585;28;20208;-73
2022/09/24 05:27:43;;;;;;;6.23;3.93;;;;;;;18.64;53.19;95055.66;5110523;28;20201;-74
2022/09/24 05:30:11;;;;;;;6.80;4.60;;;;;;;19.46;51.73;95052.91;5111038;28;20745;-73
2022/09/24 05:32:38;;;;;;;7.97;4.13;;;;;;;20.35;50.17;95066.34;5111226;28;20567;-73
2022/09/24 05:35:07;;;;;;;7.83;4.27;;;;;;;21.19;49.03;95076.63;5112316;28;20589;-75
2022/09/24 05:37:34;;;;;;;6.20;3.60;;;;;;;22.02;47.67;95074.69;5114997;28;20296;-74
2022/09/24 05:40:46;;;;;;;7.13;3.95;;;;;;;22.86;46.07;95075.06;5114196;28;20614;-75
2022/09/24 05:42:50;;;;;;;6.43;4.35;;;;;;;23.73;44.84;95071.94;5113576;28;20251;-73
2022/09/24 05:45:17;;;;;;;5.00;3.95;;;;;;;24.47;43.67;95088.75;5109982;28;20197;-75
2022/09/24 05:47:45;;;;;;;4.35;3.95;;;;;;;25.19;42.48;95086.47;5111462;28;20193;-76
2022/09/24 05:50:12;;;;;;;5.70;3.63;;;;;;;25.89;41.01;95088.63;5109616;28;20189;-75
2022/09/24 05:52:39;;;;;;;5.78;3.85;;;;;;;26.48;40.30;95079.09;5110279;28;20181;-74
2022/09/24 05:55:09;;;;;;;5.35;3.72;;;;;;;27.21;39.09;95090.94;5109555;28;20189;-80
2022/09/24 05:57:36;;;;;;;4.30;3.75;;;;;;;27.81;38.08;95100.25;5110926;28;20658;-76
2022/09/24 06:00:04;;;;;;;6.10;4.07;;;;;;;28.41;37.42;95102.38;5109936;28;20204;-77
2022/09/24 06:02:30;;;;;;;6.05;4.00;;;;;;;28.95;36.38;95086.81;5110151;28;20224;-78
2022/09/24 06:04:57;;;;;;;5.43;3.90;;;;;;;29.57;35.70;95100.81;5113004;28;20193;-77
2022/09/24 06:07:24;;;;;;;8.23;4.05;;;;;;;30.11;35.01;95098.22;5112887;28;20738;-73
2022/09/24 06:09:51;;;;;;;6.95;4.05;;;;;;;30.63;34.62;95106.31;5113140;28;20185;-74
2022/09/24 06:12:20;;;;;;;10.30;3.97;;;;;;;31.07;33.76;95102.66;5112712;28;20199;-73
2022/09/24 06:14:47;;;;;;;3.42;3.08;;;;;;;31.54;33.25;95101.84;5114326;28;20189;-78
2022/09/24 06:17:14;;;;;;;4.07;3.58;;;;;;;31.96;32.59;95105.16;5114103;28;20199;-75
2022/09/24 06:19:41;;;;;;;4.90;3.35;;;;;;;32.39;32.23;95105.78;5113728;28;20186;-75
2022/09/24 06:22:08;;;;;;;4.55;2.85;;;;;;;32.82;31.59;95113.44;5123505;28;20281;-93
2022/09/24 06:24:35;;;;;;;3.35;3.05;;;;;;;33.20;31.31;95106.72;5137378;28;20192;-86
2022/09/24 06:27:02;;;;;;;8.32;3.25;;;;;;;33.54;30.81;95109.56;5137911;28;20177;-78
2022/09/24 06:29:30;;;;;;;6.00;3.65;;;;;;;33.91;30.43;95119.72;5130838;28;20189;-94
2022/09/24 06:31:57;;;;;;;4.07;3.67;;;;;;;34.23;30.04;95120.34;5122762;28;20185;-86
2022/09/24 06:34:24;;;;;;;5.53;3.83;;;;;;;34.52;29.74;95121.22;5120439;28;20181;-91
2022/09/24 06:36:57;;;;;;;4.07;3.67;;;;;;;34.83;29.23;95124.41;5120096;28;20702;-93
2022/09/24 06:39:25;;;;;;;3.58;3.08;;;;;;;34.97;28.75;95100.63;5117369;28;20237;-90
2022/09/24 06:41:52;;;;;;;4.97;3.60;;;;;;;35.35;28.68;95122.03;5115836;28;20266;-89
2022/09/24 06:44:19;;;;;;;4.43;3.47;;;;;;;35.56;28.30;95114.63;5116927;28;20189;-88
2022/09/24 06:46:47;;;;;;;4.57;3.35;;;;;;;35.75;28.02;95112.78;5115492;28;20200;-84
2022/09/24 06:49:14;;;;;;;4.53;3.28;;;;;;;35.91;27.44;95114.16;5115688;28;20683;-80
2022/09/24 06:51:40;;;;;;;3.60;3.30;;;;;;;36.08;27.53;95115.56;5115968;28;20212;-81
2022/09/24 06:54:07;;;;;;;5.45;3.20;;;;;;;36.15;27.40;95100.81;5106751;28;20297;-80
2022/09/24 06:56:34;;;;;;;6.00;3.30;;;;;;;36.43;27.07;95119.56;5107745;28;20200;-86
2022/09/24 06:59:01;;;;;;;4.60;3.75;;;;;;;36.58;27.01;95110.56;5110868;28;20197;-86
2022/09/24 07:01:27;;;;;;;6.88;3.65;;;;;;;36.76;26.96;95117.72;5110705;28;20609;-88
2022/09/24 07:03:56;;;;;;;4.25;3.40;;;;;;;36.92;26.60;95127.06;5112524;28;20197;-76
2022/09/24 07:06:23;;;;;;;4.38;3.25;;;;;;;36.98;26.63;95111.78;5111754;28;20189;-75
2022/09/24 07:08:51;;;;;;;7.40;3.50;;;;;;;36.94;29.30;95126.78;5111504;28;20292;-74
2022/09/24 07:11:18;;;;;;;4.88;3.70;;;;;;;36.38;29.31;95120.44;5111421;28;20296;-77
2022/09/24 07:13:45;;;;;;;7.60;3.65;;;;;;;35.80;29.93;95127.91;5109630;28;20208;-80
2022/09/24 07:16:11;;;;;;;4.28;3.17;;;;;;;35.27;30.64;95125.31;5108276;28;20204;-76
2022/09/24 07:18:38;;;;;;;6.13;3.40;;;;;;;34.66;30.93;95094.78;5109527;28;20196;-76
2022/09/24 07:21:06;;;;;;;10.45;3.65;;;;;;;34.39;31.63;95113.84;5109326;28;20189;-75
2022/09/24 07:23:33;;;;;;;5.03;3.20;;;;;;;34.00;32.13;95117.31;5109202;28;20217;-74
2022/09/24 07:26:00;;;;;;;12.98;3.30;;;;;;;33.65;32.31;95102.34;5109003;28;20444;-81
2022/09/24 07:28:27;;;;;;;6.63;3.53;;;;;;;33.22;32.62;95086.06;5109892;28;20190;-79
2022/09/24 07:30:58;;;;;;;5.72;3.58;;;;;;;33.06;32.98;95117.09;5105412;28;20678;-77
2022/09/24 07:33:25;;;;;;;6.70;3.83;;;;;;;32.81;33.26;95109.97;5108570;28;20200;-84
2022/09/24 07:35:54;;;;;;;6.65;3.28;;;;;;;32.61;33.45;95112.66;5109960;28;20188;-85
2022/09/24 07:38:23;;;;;;;7.35;3.67;;;;;;;32.39;33.93;95110.28;5111154;28;20222;-84
2022/09/24 07:40:55;;;;;;;5.35;3.53;;;;;;;32.21;33.88;95111.53;5112613;28;20637;-87
2022/09/24 07:43:22;;;;;;;4.10;3.45;;;;;;;32.05;33.91;95108.09;5085231;28;20217;-76
2022/09/24 07:45:49;;;;;;;5.45;3.65;;;;;;;31.80;34.59;95090.28;5109646;28;20624;-75
2022/09/24 07:48:16;;;;;;;6.45;3.92;;;;;;;31.67;34.63;95110.09;5109869;28;20191;-81
2022/09/24 07:50:43;;;;;;;4.38;3.97;;;;;;;31.36;33.83;95080.09;5108720;28;20200;-82
2022/09/24 07:53:11;;;;;;;5.38;3.92;;;;;;;31.31;33.91;95105.72;5109763;28;20614;-84
2022/09/24 07:55:40;;;;;;;4.38;3.97;;;;;;;31.13;34.09;95104.25;5111086;28;20220;-85
2022/09/24 07:58:10;;;;;;;22.63;4.15;;;;;;;30.99;34.50;95103.94;5111096;28;20247;-84
2022/09/24 08:00:37;;;;;;;13.25;3.92;;;;;;;30.91;34.54;95107.84;5106099;28;20223;-85
2022/09/24 08:03:06;;;;;;;32.90;5.13;;;;;;;30.77;35.16;95093.50;5105144;28;20224;-74
2022/09/24 08:05:33;;;;;;;12.77;4.15;;;;;;;30.73;34.80;95102.97;5108223;28;20267;-77
2022/09/24 08:08:00;;;;;;;8.82;4.18;;;;;;;30.67;34.42;95094.19;5109002;28;20249;-78
2022/09/24 08:10:28;;;;;;;12.63;4.45;;;;;;;30.57;34.55;95101.25;5108382;28;20219;-76
2022/09/24 08:12:57;;;;;;;9.63;4.57;;;;;;;30.47;34.93;95101.97;5108474;28;20692;-79
2022/09/24 08:15:24;;;;;;;8.55;3.45;;;;;;;30.19;35.02;95058.22;5108291;28;20249;-75
2022/09/24 08:17:51;;;;;;;9.48;4.22;;;;;;;30.42;34.58;95094.81;5088107;28;20185;-74
2022/09/24 08:20:20;;;;;;;8.07;4.32;;;;;;;30.60;33.76;95106.03;5103315;28;20591;-77
2022/09/24 08:22:47;;;;;;;6.00;4.10;;;;;;;30.73;33.60;95103.78;5100625;28;20205;-73
2022/09/24 08:25:14;;;;;;;8.02;4.05;;;;;;;30.85;33.01;95100.16;5104597;28;20182;-75
2022/09/24 08:27:41;;;;;;;7.68;4.05;;;;;;;30.96;32.92;95096.53;5089482;28;20189;-74
2022/09/24 08:30:12;;;;;;;6.13;3.95;;;;;;;30.71;32.31;95044.31;5089887;28;20182;-77
2022/09/24 08:32:39;;;;;;;4.72;3.72;;;;;;;30.97;32.32;95071.69;5109209;28;20196;-75
2022/09/24 08:35:07;;;;;;;7.28;3.65;;;;;;;31.18;31.75;95094.53;5109928;28;20199;-77
2022/09/24 08:37:34;;;;;;;8.50;3.95;;;;;;;31.18;31.82;95081.31;5109771;28;20238;-77
2022/09/24 08:40:02;;;;;;;5.53;3.80;;;;;;;31.16;31.30;95077.34;5111997;28;20557;-83
2022/09/24 08:42:38;;;;;;;6.15;4.40;;;;;;;31.28;31.23;95091.16;5111774;28;20269;-87
2022/09/24 08:47:56;;;;;;;5.93;3.72;;;;;;;31.21;31.01;95080.78;5109743;28;20215;-81
2022/09/24 08:50:27;;;;;;;5.93;3.80;;;;;;;30.99;31.01;95059.81;5113606;28;20200;-81
2022/09/24 08:53:07;;;;;;;5.95;4.10;;;;;;;31.10;30.98;95081.00;5110667;28;20200;-84
2022/09/24 08:55:38;;;;;;;4.20;3.75;;;;;;;31.01;30.78;95075.44;5111273;28;20643;-84
2022/09/24 08:58:25;;;;;;;4.05;3.63;;;;;;;30.92;30.66;95074.31;5111229;28;20191;-77
2022/09/24 09:00:59;;;;;;;5.00;4.05;;;;;;;30.77;30.55;95063.66;5100643;28;20211;-87
2022/09/24 09:03:35;;;;;;;6.32;4.28;;;;;;;30.70;30.21;95064.66;5110787;28;20208;-80
2022/09/24 09:06:09;;;;;;;8.27;5.22;;;;;;;30.57;29.97;95075.66;5109568;28;20189;-82
2022/09/24 09:08:47;;;;;;;11.60;5.90;;;;;;;30.44;30.09;95068.16;5109806;28;20239;-78
2022/09/24 09:11:16;;;;;;;15.32;5.82;;;;;;;30.29;29.89;95060.94;5109788;28;20249;-80
2022/09/24 09:13:50;;;;;;;11.43;5.88;;;;;;;30.15;30.20;95057.13;5109910;28;20204;-81
2022/09/24 09:16:23;;;;;;;12.18;5.70;;;;;;;29.98;29.81;95063.28;5109506;28;20628;-82
2022/09/24 09:18:55;;;;;;;8.63;5.35;;;;;;;29.78;30.19;95051.75;5113906;28;20648;-79
2022/09/24 09:21:29;;;;;;;8.15;5.57;;;;;;;29.69;30.15;95057.44;5110230;28;20203;-78
2022/09/24 09:23:57;;;;;;;9.57;5.95;;;;;;;29.53;29.83;95055.66;5109928;28;20220;-80
2022/09/24 09:26:26;;;;;;;7.97;5.80;;;;;;;29.38;30.24;95058.94;5110024;28;20560;-78
2022/09/24 09:28:55;;;;;;;8.70;5.15;;;;;;;29.21;29.91;95048.47;5110153;28;20189;-77
2022/09/24 09:31:32;;;;;;;7.43;5.13;;;;;;;28.91;30.15;95019.88;5109925;28;20196;-77
2022/09/24 09:34:27;;;;;;;7.70;5.53;;;;;;;28.88;30.19;95038.78;5110469;28;20629;-78
2022/09/24 09:37:07;;;;;;;8.57;4.30;;;;;;;28.69;30.38;95038.28;5110152;28;20193;-78
2022/09/24 09:39:44;;;;;;;6.10;4.53;;;;;;;28.50;30.25;95036.97;5112576;28;20188;-77
2022/09/24 09:42:25;;;;;;;7.25;4.82;;;;;;;28.35;30.29;95028.81;5113782;28;20184;-76
2022/09/24 09:44:53;;;;;;;6.65;4.95;;;;;;;28.19;30.78;95028.56;5113593;28;20606;-78
2022/09/24 09:47:25;;;;;;;7.25;4.45;;;;;;;28.00;30.47;95019.34;5113569;28;20283;-79
2022/09/24 09:49:57;;;;;;;6.05;4.78;;;;;;;27.88;30.65;95021.25;5113646;28;20185;-79
2022/09/24 09:52:28;;;;;;;6.25;4.60;;;;;;;27.74;31.00;95012.84;5113901;28;20277;-77
2022/09/24 09:58:16;;;;;;;7.30;4.32;;;;;;;27.26;30.85;94993.06;5133265;28;20193;-83
2022/09/24 10:00:45;;;;;;;5.82;4.38;;;;;;;27.23;31.01;94991.69;5115583;28;20259;-79
2022/09/24 10:03:22;;;;;;;8.68;3.85;;;;;;;27.11;31.12;94996.19;5113687;28;20874;-75
2022/09/24 10:05:56;;;;;;;4.47;3.92;;;;;;;26.99;31.11;95000.66;5116354;28;20255;-81
2022/09/24 10:08:23;;;;;;;7.60;3.70;;;;;;;26.91;30.98;94990.53;5113118;28;20231;-79
2022/09/24 10:10:57;;;;;;;4.75;3.88;;;;;;;26.75;31.09;94978.91;5113391;28;20193;-77
2022/09/24 10:13:25;;;;;;;6.65;3.90;;;;;;;26.75;31.07;94986.78;5113320;28;20201;-76
2022/09/24 10:15:54;;;;;;;5.05;3.67;;;;;;;26.58;31.27;94968.31;5120013;28;20197;-74
2022/09/24 10:18:30;;;;;;;4.63;3.13;;;;;;;26.59;31.20;94985.66;5126102;28;20185;-76
2022/09/24 10:21:01;;;;;;;4.15;3.10;;;;;;;26.52;31.35;94977.13;5119809;28;20185;-73
2022/09/24 10:23:34;;;;;;;5.80;3.63;;;;;;;26.40;31.26;94960.56;5112807;28;20611;-75
2022/09/24 10:26:03;;;;;;;5.97;3.65;;;;;;;26.39;31.19;94972.09;5112154;28;20204;-77
2022/09/24 10:31:19;;;;;;;4.85;2.92;;;;;;;26.24;30.76;94975.94;5112533;28;20290;-76
2022/09/24 10:33:49;;;;;;;3.95;3.03;;;;;;;25.96;31.10;94936.53;5112970;28;20188;-75
2022/09/24 10:36:21;;;;;;;3.28;2.88;;;;;;;26.12;30.85;94963.88;5112633;28;20686;-76
2022/09/24 10:38:48;;;;;;;5.57;2.88;;;;;;;26.03;31.26;94966.81;5112672;28;20185;-80
2022/09/24 10:41:24;;;;;;;5.63;2.70;;;;;;;25.98;30.89;94965.91;5112827;28;20189;-78
2022/09/24 10:43:52;;;;;;;3.40;2.63;;;;;;;25.94;31.26;94975.25;5113376;28;20224;-79
2022/09/24 10:46:52;;;;;;;2.50;2.30;;;;;;;25.57;31.34;94924.84;5112361;28;20204;-80
2022/09/24 10:49:34;;;;;;;2.75;2.47;;;;;;;25.82;31.01;94977.06;5048985;28;20221;-79
2022/09/24 10:52:14;;;;;;;2.95;2.58;;;;;;;25.70;30.93;94964.72;5049510;28;20191;-76
2022/09/24 10:54:53;;;;;;;5.03;2.83;;;;;;;25.60;31.29;94961.81;5048945;28;20600;-76
2022/09/24 10:57:30;;;;;;;3.33;2.70;;;;;;;25.65;30.90;94969.03;5048919;28;20183;-77
2022/09/24 11:00:08;;;;;;;5.97;2.80;;;;;;;25.61;31.04;94971.31;5048981;28;20602;-77
2022/09/24 11:03:16;;;;;;;2.40;2.20;;;;;;;25.58;30.94;94971.75;5048936;28;20183;-75
2022/09/24 11:05:51;;;;;;;2.35;2.10;;;;;;;25.39;31.13;94947.44;4987171;28;20200;-74
2022/09/24 11:08:30;;;;;;;2.92;2.25;;;;;;;25.40;31.07;94959.50;4989440;28;20216;-76
2022/09/24 11:11:14;;;;;;;3.25;2.10;;;;;;;25.46;31.32;94963.06;4989917;28;20227;-75
2022/09/24 11:13:48;;;;;;;5.72;2.33;;;;;;;25.28;31.45;94941.16;4989575;28;20224;-75
2022/09/24 11:16:43;;;;;;;2.40;2.20;;;;;;;25.38;31.18;94953.69;4989476;28;20661;-77
2022/09/24 11:19:24;;;;;;;2.47;2.28;;;;;;;25.33;31.01;94948.31;4989466;28;20196;-77
2022/09/24 11:22:09;;;;;;;2.60;2.40;;;;;;;24.95;31.17;94899.69;4989518;28;20235;-76
2022/09/24 11:24:52;;;;;;;2.78;2.20;;;;;;;25.11;31.31;94919.22;4989104;28;20212;-78
2022/09/24 11:27:49;;;;;;;3.17;2.30;;;;;;;25.22;31.15;94938.63;5047764;28;20201;-75
2022/09/24 11:30:19;;;;;;;2.67;2.22;;;;;;;25.19;31.18;94931.22;5048512;28;20191;-77
2022/09/24 11:33:01;;;;;;;2.97;2.20;;;;;;;24.96;31.27;94901.28;5048296;28;20252;-77
2022/09/24 11:35:52;;;;;;;2.40;2.20;;;;;;;25.02;31.22;94912.69;5048476;28;20218;-77
2022/09/24 11:38:30;;;;;;;3.70;2.33;;;;;;;24.88;31.31;94898.19;5048152;28;20651;-77
2022/09/24 11:41:23;;;;;;;2.38;2.17;;;;;;;24.65;31.36;94865.66;5071809;28;20201;-76
2022/09/24 11:44:04;;;;;;;2.40;2.20;;;;;;;25.00;31.50;94918.16;5111270;28;20312;-74
2022/09/24 11:46:48;;;;;;;2.65;2.30;;;;;;;24.81;31.27;94889.63;5110896;28;20981;-80
2022/09/24 11:49:41;;;;;;;2.72;2.53;;;;;;;24.95;31.48;94927.66;5113463;28;20204;-77
2022/09/24 11:52:15;;;;;;;2.03;1.92;;;;;;;24.93;31.40;94921.88;5116569;28;20893;-75
2022/09/24 11:54:51;;;;;;;2.60;2.38;;;;;;;24.90;31.59;94919.69;5111927;28;20197;-78
2022/09/24 11:57:24;;;;;;;2.38;2.25;;;;;;;24.89;31.61;94915.47;5111185;28;20721;-75
2022/09/24 11:59:58;;;;;;;2.80;2.50;;;;;;;24.86;31.71;94908.84;5110723;28;20200;-75
2022/09/24 12:02:32;;;;;;;4.32;2.40;;;;;;;24.82;31.57;94907.69;5110665;28;20180;-76
2022/09/24 12:05:05;;;;;;;2.70;2.50;;;;;;;24.81;31.63;94915.78;5110855;28;20273;-77